Terminal Aerodrome Forecast
Issued by NWS

Home | Current Version | Previous Version | Text Only | Print | Product List | Glossary On
Versions: 1 2 3 4 5 6 7 8 9 10 11 12 13 14 15 16 17 18 19 20 21 22 23
000
FTUS43 KDLH 221700 RRA
TAFHYR
TAF
KHYR 221740Z 2218/2318 15008KT 2SM BR OVC005
      TEMPO 2218/2220 1 1/2SM -DZ BR OVC004
     FM222000 15007KT 2SM -DZ BR OVC006
     FM222300 12006KT 4SM -DZ BR OVC012
     FM230700 09006KT 1SM -DZ BR OVC006
     FM231200 05008KT 1SM -SN BR OVC004
      TEMPO 2314/2318 3/4SM -SN BR OVC003=

USA.gov is the U.S. government's official web portal to all federal, state and local government web resources and services.